Dalesburg, South Dakota
Current Conditions -  °F | °C
As of 12:35 AM on Wednesday 26 Nov 2014 (Local Time) from KYKN Reporting Station
Overcast Overcast  
Wind Chill: 28°   Ceiling: 2400
Heat Index: 34°   Visibility: 10mi
Dew Point: 32°   Wind: 7mph
Humidity: 93%   Direction: 290°WNW
Pressure: 29.83"   Gusts: NA
Location:  43.1249°N, 96.9808°W
Report Text: KYKN 260635Z AUTO 29006KT 10SM SCT014 BKN024 OVC036 01/00 A2983 RMK AO1
Loading
Personal Weather Stations






























Interactive Weather Map New forecast layout! Learn more

10-Day Weather Forecast

Advertisements
Track Severe Weather on mobile